Time;durP1;ratioP1;P1;durP2;ratioP2;P2;SDS_P1;SDS_P2;PMS_P1;PMS_P2;Temp;Humidity;BMP_temperature;BMP_pressure;BME280_temperature;BME280_humidity;BME280_pressure;Samples;Min_cycle;Max_cycle;Signal;HPM_P1;HPM_P2
2023/06/25 00:00:57;;;;;;;7.10;6.40;;;;;;;;;;5066307;28;42511;-33
2023/06/25 00:03:25;;;;;;;6.45;5.80;;;;;;;;;;5065163;28;43388;-34
2023/06/25 00:05:53;;;;;;;7.15;6.45;;;;;;;;;;5066719;28;40924;-34
2023/06/25 00:08:21;;;;;;;7.07;6.47;;;;;;;;;;5066155;28;43397;-30
2023/06/25 00:10:50;;;;;;;8.25;5.97;;;;;;;;;;5065861;28;45779;-35
2023/06/25 00:13:19;;;;;;;6.97;6.28;;;;;;;;;;5066288;28;40931;-30
2023/06/25 00:15:47;;;;;;;6.88;6.07;;;;;;;;;;5066336;28;43042;-34
2023/06/25 00:18:15;;;;;;;6.60;5.95;;;;;;;;;;5066136;28;40547;-34
2023/06/25 00:20:43;;;;;;;6.70;5.85;;;;;;;;;;5066598;28;42905;-29
2023/06/25 00:23:11;;;;;;;6.90;5.60;;;;;;;;;;5065418;28;43041;-34
2023/06/25 00:25:39;;;;;;;6.75;6.03;;;;;;;;;;5065521;28;40255;-36
2023/06/25 00:28:08;;;;;;;7.13;5.68;;;;;;;;;;5065985;28;42221;-31
2023/06/25 00:30:38;;;;;;;7.63;6.20;;;;;;;;;;5065536;28;44643;-30
2023/06/25 00:33:07;;;;;;;9.10;5.63;;;;;;;;;;5059356;28;38705;-31
2023/06/25 00:35:59;;;;;;;6.40;5.80;;;;;;;;;;5058295;28;42181;-31
2023/06/25 00:38:29;;;;;;;6.88;5.50;;;;;;;;;;5062324;28;41418;-34
2023/06/25 00:40:57;;;;;;;6.95;6.00;;;;;;;;;;5064257;28;41229;-34
2023/06/25 00:43:25;;;;;;;6.38;5.70;;;;;;;;;;5065050;28;43367;-32
2023/06/25 00:45:54;;;;;;;6.47;5.88;;;;;;;;;;5051823;28;40373;-32
2023/06/25 00:48:22;;;;;;;5.75;5.25;;;;;;;;;;5065589;28;42310;-31
2023/06/25 00:50:51;;;;;;;6.88;6.07;;;;;;;;;;5059715;28;43377;-31
2023/06/25 00:53:19;;;;;;;6.63;5.82;;;;;;;;;;5064870;28;41996;-33
2023/06/25 00:55:50;;;;;;;7.18;6.00;;;;;;;;;;5064367;28;42672;-30
2023/06/25 00:58:22;;;;;;;6.35;5.75;;;;;;;;;;5062211;28;43443;-33
2023/06/25 01:00:50;;;;;;;6.35;5.53;;;;;;;;;;5064188;28;42063;-33
2023/06/25 01:03:26;;;;;;;6.30;5.70;;;;;;;;;;5065187;28;43584;-28
2023/06/25 01:05:58;;;;;;;6.28;5.53;;;;;;;;;;5059050;28;40038;-32
2023/06/25 01:08:40;;;;;;;6.18;5.60;;;;;;;;;;5065779;28;43754;-33
2023/06/25 01:11:10;;;;;;;6.43;5.82;;;;;;;;;;5069364;28;43800;-33
2023/06/25 01:13:38;;;;;;;6.10;5.50;;;;;;;;;;5066049;28;39959;-33
2023/06/25 01:16:06;;;;;;;6.10;5.60;;;;;;;;;;5068860;28;42278;-28
2023/06/25 01:18:39;;;;;;;6.55;5.88;;;;;;;;;;5067212;28;42157;-33
2023/06/25 01:21:19;;;;;;;6.60;5.72;;;;;;;;;;5066384;28;39859;-32
2023/06/25 01:23:48;;;;;;;7.40;5.63;;;;;;;;;;5069039;28;43487;-32
2023/06/25 01:26:16;;;;;;;6.15;5.55;;;;;;;;;;5069061;28;40361;-29
2023/06/25 01:28:44;;;;;;;7.72;6.38;;;;;;;;;;5068209;28;42963;-33
2023/06/25 01:31:12;;;;;;;6.90;6.20;;;;;;;;;;5068862;28;43301;-28
2023/06/25 01:33:40;;;;;;;6.32;5.70;;;;;;;;;;5060967;28;40223;-32
2023/06/25 01:36:08;;;;;;;6.70;6.05;;;;;;;;;;5073496;28;41110;-31
2023/06/25 01:38:36;;;;;;;6.50;5.80;;;;;;;;;;5061858;28;41900;-31
2023/06/25 01:41:05;;;;;;;5.80;5.30;;;;;;;;;;5054056;28;40477;-28
2023/06/25 01:43:33;;;;;;;6.45;5.85;;;;;;;;;;5066289;28;42199;-34
2023/06/25 01:46:01;;;;;;;7.13;5.90;;;;;;;;;;5067130;28;38922;-34
2023/06/25 01:48:31;;;;;;;6.55;5.95;;;;;;;;;;5067440;28;44240;-29
2023/06/25 01:50:59;;;;;;;6.00;5.43;;;;;;;;;;5068619;28;43780;-28
2023/06/25 01:53:26;;;;;;;6.07;5.50;;;;;;;;;;5068226;28;40446;-28
2023/06/25 01:55:54;;;;;;;6.80;6.10;;;;;;;;;;5067856;28;42913;-28
2023/06/25 01:58:24;;;;;;;7.78;6.00;;;;;;;;;;5067825;28;43551;-28
2023/06/25 02:00:52;;;;;;;6.40;5.80;;;;;;;;;;5066470;28;39786;-31
2023/06/25 02:03:20;;;;;;;6.22;5.57;;;;;;;;;;5067062;28;42907;-30
2023/06/25 02:05:48;;;;;;;6.28;5.68;;;;;;;;;;5067968;28;43490;-26
2023/06/25 02:08:16;;;;;;;6.40;5.65;;;;;;;;;;5068551;28;43939;-25
2023/06/25 02:10:44;;;;;;;6.65;5.95;;;;;;;;;;5065509;28;41834;-24
2023/06/25 02:13:14;;;;;;;6.50;5.90;;;;;;;;;;5068467;28;39959;-24
2023/06/25 02:15:44;;;;;;;6.60;5.72;;;;;;;;;;5065354;28;42618;-27
2023/06/25 02:18:15;;;;;;;6.25;5.65;;;;;;;;;;5066504;28;41585;-24
2023/06/25 02:20:43;;;;;;;6.68;5.97;;;;;;;;;;5067678;28;40703;-24
2023/06/25 02:23:11;;;;;;;6.05;5.10;;;;;;;;;;5067891;28;43489;-27
2023/06/25 02:25:39;;;;;;;6.57;5.97;;;;;;;;;;5064674;28;42278;-25
2023/06/25 02:28:07;;;;;;;5.88;5.38;;;;;;;;;;5066516;28;41444;-25
2023/06/25 02:30:35;;;;;;;6.75;6.15;;;;;;;;;;5064579;28;43661;-26
2023/06/25 02:33:05;;;;;;;6.50;5.90;;;;;;;;;;5065618;28;42056;-26
2023/06/25 02:35:33;;;;;;;6.72;6.03;;;;;;;;;;5057013;28;43158;-25
2023/06/25 02:38:01;;;;;;;7.10;6.40;;;;;;;;;;5067025;28;43407;-25
2023/06/25 02:40:29;;;;;;;6.32;5.72;;;;;;;;;;5065363;28;40200;-25
2023/06/25 02:42:57;;;;;;;6.95;6.25;;;;;;;;;;5066288;28;41856;-26
2023/06/25 02:45:25;;;;;;;7.13;6.22;;;;;;;;;;5063905;28;42621;-30
2023/06/25 02:47:53;;;;;;;7.13;6.40;;;;;;;;;;5066672;28;39053;-25
2023/06/25 02:50:23;;;;;;;6.80;6.10;;;;;;;;;;5065212;28;43004;-25
2023/06/25 02:52:51;;;;;;;6.63;6.00;;;;;;;;;;5081957;28;40301;-25
2023/06/25 02:55:20;;;;;;;7.45;6.75;;;;;;;;;;5066289;28;42838;-25
2023/06/25 02:57:48;;;;;;;7.57;6.80;;;;;;;;;;5067196;28;44351;-25
2023/06/25 03:00:16;;;;;;;6.57;5.90;;;;;;;;;;5066674;28;40495;-25
2023/06/25 03:02:44;;;;;;;7.18;6.47;;;;;;;;;;5066450;28;40716;-25
2023/06/25 03:05:12;;;;;;;7.18;6.47;;;;;;;;;;5064609;28;42997;-25
2023/06/25 03:07:50;;;;;;;7.70;6.78;;;;;;;;;;5067087;28;40797;-25
2023/06/25 03:10:19;;;;;;;7.13;6.43;;;;;;;;;;5050993;28;41056;-26
2023/06/25 03:12:47;;;;;;;7.53;6.03;;;;;;;;;;5081728;28;40569;-27
2023/06/25 03:15:15;;;;;;;7.50;6.07;;;;;;;;;;5065914;28;42019;-26
2023/06/25 03:17:43;;;;;;;7.68;6.88;;;;;;;;;;5067153;28;43403;-25
2023/06/25 03:20:12;;;;;;;7.72;6.93;;;;;;;;;;5064104;28;39439;-25
2023/06/25 03:22:40;;;;;;;6.95;6.22;;;;;;;;;;5065124;28;43528;-25
2023/06/25 03:25:10;;;;;;;6.95;6.25;;;;;;;;;;5064794;28;41666;-25
2023/06/25 03:27:42;;;;;;;9.02;6.90;;;;;;;;;;5081560;28;40436;-26
2023/06/25 03:30:10;;;;;;;8.20;6.78;;;;;;;;;;5065593;28;40967;-25
2023/06/25 03:32:38;;;;;;;7.50;6.70;;;;;;;;;;5066460;28;43598;-26
2023/06/25 03:35:07;;;;;;;14.27;7.25;;;;;;;;;;5064549;28;41942;-25
2023/06/25 03:37:36;;;;;;;7.47;6.78;;;;;;;;;;5064823;28;41491;-26
2023/06/25 03:40:05;;;;;;;7.13;6.43;;;;;;;;;;5064955;28;41369;-26
2023/06/25 03:42:34;;;;;;;6.95;6.35;;;;;;;;;;5065972;28;43712;-25
2023/06/25 03:45:03;;;;;;;8.23;6.90;;;;;;;;;;5064459;28;43617;-25
2023/06/25 03:47:31;;;;;;;7.05;6.32;;;;;;;;;;5064008;28;40066;-25
2023/06/25 03:49:59;;;;;;;7.32;6.63;;;;;;;;;;5066979;28;43309;-25
2023/06/25 03:52:27;;;;;;;7.75;6.35;;;;;;;;;;5064391;28;41956;-25
2023/06/25 03:54:55;;;;;;;7.40;6.70;;;;;;;;;;5064492;28;39763;-25
2023/06/25 03:57:23;;;;;;;6.82;6.22;;;;;;;;;;5080886;28;42432;-25
2023/06/25 03:59:52;;;;;;;7.00;6.40;;;;;;;;;;5067038;28;40505;-26
2023/06/25 04:02:21;;;;;;;7.55;6.75;;;;;;;;;;5067168;28;41131;-26
2023/06/25 04:04:49;;;;;;;8.15;6.80;;;;;;;;;;5066622;28;43297;-25
2023/06/25 04:07:17;;;;;;;6.97;6.28;;;;;;;;;;5062275;28;41293;-27
2023/06/25 04:09:45;;;;;;;7.55;6.85;;;;;;;;;;5063991;28;44066;-25
2023/06/25 04:12:13;;;;;;;7.20;6.50;;;;;;;;;;5064995;28;41985;-25
2023/06/25 04:14:41;;;;;;;6.90;6.20;;;;;;;;;;5066135;28;40372;-26
2023/06/25 04:17:10;;;;;;;7.32;6.57;;;;;;;;;;5063884;28;41349;-26
2023/06/25 04:19:39;;;;;;;7.05;6.35;;;;;;;;;;5064400;28;41411;-26
2023/06/25 04:22:08;;;;;;;7.40;6.70;;;;;;;;;;5081523;28;42111;-26
2023/06/25 04:24:36;;;;;;;6.45;5.95;;;;;;;;;;5065033;28;43040;-28
2023/06/25 04:27:06;;;;;;;7.78;7.07;;;;;;;;;;5081207;28;39695;-26
2023/06/25 04:29:36;;;;;;;7.10;6.40;;;;;;;;;;5079753;28;40837;-25
2023/06/25 04:32:04;;;;;;;7.15;6.35;;;;;;;;;;5065924;28;45182;-25
2023/06/25 04:34:36;;;;;;;7.25;6.40;;;;;;;;;;5063433;28;38891;-26
2023/06/25 04:37:04;;;;;;;7.35;6.63;;;;;;;;;;5063547;28;41398;-26
2023/06/25 04:39:32;;;;;;;7.20;6.45;;;;;;;;;;5064419;28;39024;-26
2023/06/25 04:42:01;;;;;;;7.35;6.65;;;;;;;;;;5064039;28;42406;-25
2023/06/25 04:44:29;;;;;;;7.35;6.60;;;;;;;;;;5067849;28;43455;-26
2023/06/25 04:46:57;;;;;;;7.25;6.43;;;;;;;;;;5069330;28;40491;-25
2023/06/25 04:49:25;;;;;;;7.82;7.03;;;;;;;;;;5067704;28;41511;-26
2023/06/25 04:51:55;;;;;;;7.47;6.78;;;;;;;;;;5068627;28;43382;-25
2023/06/25 04:54:23;;;;;;;7.60;6.82;;;;;;;;;;5069046;28;40220;-27
2023/06/25 04:56:51;;;;;;;7.15;6.45;;;;;;;;;;5069671;28;43858;-26
2023/06/25 04:59:19;;;;;;;8.32;6.30;;;;;;;;;;5068498;28;43901;-25
2023/06/25 05:01:47;;;;;;;7.68;6.78;;;;;;;;;;5069457;28;43726;-27
2023/06/25 05:04:15;;;;;;;7.45;6.75;;;;;;;;;;5069006;28;44098;-25
2023/06/25 05:06:43;;;;;;;7.32;6.63;;;;;;;;;;5068541;28;40343;-26
2023/06/25 05:09:13;;;;;;;7.95;7.15;;;;;;;;;;5069224;28;42740;-25
2023/06/25 05:11:41;;;;;;;7.68;6.97;;;;;;;;;;5065279;28;42940;-25
2023/06/25 05:14:09;;;;;;;8.65;6.78;;;;;;;;;;5065286;28;40455;-26
2023/06/25 05:16:37;;;;;;;7.60;6.80;;;;;;;;;;5068704;28;43093;-25
2023/06/25 05:19:05;;;;;;;7.70;6.90;;;;;;;;;;5068319;28;44656;-25
2023/06/25 05:21:33;;;;;;;10.32;8.60;;;;;;;;;;5068597;28;40555;-27
2023/06/25 05:24:01;;;;;;;10.10;9.15;;;;;;;;;;5068395;28;44460;-25
2023/06/25 05:26:31;;;;;;;10.27;9.18;;;;;;;;;;5067598;28;41635;-25
2023/06/25 05:28:59;;;;;;;11.23;9.65;;;;;;;;;;5068783;28;42864;-25
2023/06/25 05:31:27;;;;;;;10.07;9.07;;;;;;;;;;5067824;28;43714;-26
2023/06/25 05:33:55;;;;;;;12.05;9.38;;;;;;;;;;5058705;28;41460;-25
2023/06/25 05:36:23;;;;;;;14.82;10.48;;;;;;;;;;5061300;28;42798;-25
2023/06/25 05:38:51;;;;;;;10.50;9.43;;;;;;;;;;5068904;28;44242;-26
2023/06/25 05:41:19;;;;;;;10.98;9.73;;;;;;;;;;5057592;28;40375;-25
2023/06/25 05:43:48;;;;;;;10.80;9.68;;;;;;;;;;5061530;28;42963;-25
2023/06/25 05:46:16;;;;;;;10.93;9.73;;;;;;;;;;5067466;28;39520;-25
2023/06/25 05:48:45;;;;;;;11.32;10.13;;;;;;;;;;5062290;28;43826;-25
2023/06/25 05:51:12;;;;;;;14.52;10.05;;;;;;;;;;5061520;28;43425;-27
2023/06/25 05:53:41;;;;;;;12.27;10.77;;;;;;;;;;5057388;28;41725;-26
2023/06/25 05:56:09;;;;;;;13.75;9.80;;;;;;;;;;5061424;28;42387;-27
2023/06/25 05:58:37;;;;;;;10.43;9.32;;;;;;;;;;5060933;28;43092;-25
2023/06/25 06:01:06;;;;;;;10.32;9.15;;;;;;;;;;5066676;28;39987;-27
2023/06/25 06:03:34;;;;;;;12.10;9.65;;;;;;;;;;5066913;28;42925;-26
2023/06/25 06:06:02;;;;;;;11.60;8.88;;;;;;;;;;5066720;28;43802;-26
2023/06/25 06:08:30;;;;;;;10.15;9.15;;;;;;;;;;5061037;28;42404;-25
2023/06/25 06:10:58;;;;;;;11.70;9.18;;;;;;;;;;5056914;28;43711;-26
2023/06/25 06:13:26;;;;;;;9.48;8.52;;;;;;;;;;5051783;28;41097;-25
2023/06/25 06:15:54;;;;;;;12.00;8.85;;;;;;;;;;5061962;28;42694;-25
2023/06/25 06:18:23;;;;;;;10.32;9.02;;;;;;;;;;5067964;28;44638;-26
2023/06/25 06:20:51;;;;;;;10.23;8.63;;;;;;;;;;5068246;28;40560;-27
2023/06/25 06:23:19;;;;;;;9.27;8.32;;;;;;;;;;5067060;28;42823;-25
2023/06/25 06:25:47;;;;;;;9.40;8.38;;;;;;;;;;5068137;28;42926;-25
2023/06/25 06:28:15;;;;;;;10.52;8.55;;;;;;;;;;5067808;28;39988;-25
2023/06/25 06:30:43;;;;;;;11.35;7.88;;;;;;;;;;5059183;28;43268;-26
2023/06/25 06:33:11;;;;;;;9.98;8.00;;;;;;;;;;5066956;28;40344;-25
2023/06/25 06:35:40;;;;;;;8.95;8.07;;;;;;;;;;5067217;28;42772;-26
2023/06/25 06:38:08;;;;;;;10.48;8.32;;;;;;;;;;5066780;28;44395;-26
2023/06/25 06:40:36;;;;;;;12.68;8.32;;;;;;;;;;5066852;28;41082;-25
2023/06/25 06:43:04;;;;;;;9.05;8.02;;;;;;;;;;5066864;28;43546;-26
2023/06/25 06:45:32;;;;;;;8.60;7.70;;;;;;;;;;5066873;28;44032;-26
2023/06/25 06:48:00;;;;;;;9.55;7.43;;;;;;;;;;5068072;28;40767;-25
2023/06/25 06:50:28;;;;;;;7.78;6.82;;;;;;;;;;5066248;28;44333;-26
2023/06/25 06:52:57;;;;;;;9.13;8.00;;;;;;;;;;5067951;28;40408;-27
2023/06/25 06:55:25;;;;;;;8.82;7.93;;;;;;;;;;5066761;28;42758;-26
2023/06/25 06:57:53;;;;;;;10.02;8.05;;;;;;;;;;5066693;28;43901;-26
2023/06/25 07:00:22;;;;;;;9.68;7.43;;;;;;;;;;5059332;28;41335;-26
2023/06/25 07:02:50;;;;;;;9.43;7.90;;;;;;;;;;5064182;28;43221;-26
2023/06/25 07:05:19;;;;;;;8.85;7.05;;;;;;;;;;5053140;28;43865;-25
2023/06/25 07:07:47;;;;;;;10.43;7.03;;;;;;;;;;5065879;28;40350;-25
2023/06/25 07:10:16;;;;;;;9.52;7.28;;;;;;;;;;5066853;28;43118;-26
2023/06/25 07:12:44;;;;;;;10.98;7.57;;;;;;;;;;5065779;28;40977;-25
2023/06/25 07:15:12;;;;;;;10.55;8.13;;;;;;;;;;5061749;28;43097;-27
2023/06/25 07:17:40;;;;;;;10.50;7.75;;;;;;;;;;5066652;28;43436;-25
2023/06/25 07:20:09;;;;;;;9.07;8.15;;;;;;;;;;5066849;28;40541;-26
2023/06/25 07:22:38;;;;;;;10.77;7.10;;;;;;;;;;5066491;28;42469;-26
2023/06/25 07:25:06;;;;;;;8.80;7.90;;;;;;;;;;5054217;28;43828;-26
2023/06/25 07:27:35;;;;;;;9.02;6.88;;;;;;;;;;5065690;28;40620;-25
2023/06/25 07:30:04;;;;;;;8.18;7.30;;;;;;;;;;5065562;28;42788;-25
2023/06/25 07:32:32;;;;;;;8.35;7.28;;;;;;;;;;5064908;28;43971;-26
2023/06/25 07:35:00;;;;;;;9.48;7.18;;;;;;;;;;5066235;28;42287;-25
2023/06/25 07:37:28;;;;;;;8.25;7.35;;;;;;;;;;5066190;28;43658;-26
2023/06/25 07:39:56;;;;;;;9.10;7.03;;;;;;;;;;5065555;28;40168;-27
2023/06/25 07:42:24;;;;;;;10.48;7.68;;;;;;;;;;5066847;28;43709;-29
2023/06/25 07:44:53;;;;;;;10.05;7.47;;;;;;;;;;5065938;28;44423;-26
2023/06/25 07:47:24;;;;;;;10.27;8.13;;;;;;;;;;5065438;28;41250;-27
2023/06/25 07:49:52;;;;;;;10.52;7.25;;;;;;;;;;5066398;28;43372;-25
2023/06/25 07:52:20;;;;;;;10.60;7.53;;;;;;;;;;5066113;28;43167;-25
2023/06/25 07:54:48;;;;;;;8.98;7.60;;;;;;;;;;5066298;28;42383;-26
2023/06/25 07:57:16;;;;;;;13.80;7.60;;;;;;;;;;5066215;28;43407;-25
2023/06/25 07:59:44;;;;;;;10.07;7.82;;;;;;;;;;5065826;28;40162;-26
2023/06/25 08:02:21;;;;;;;8.23;7.38;;;;;;;;;;5064499;28;42621;-27
2023/06/25 08:04:50;;;;;;;15.77;7.78;;;;;;;;;;5056986;28;43366;-25
2023/06/25 08:07:18;;;;;;;8.85;7.78;;;;;;;;;;5065463;28;40915;-26
2023/06/25 08:09:48;;;;;;;9.43;7.55;;;;;;;;;;5066291;28;43515;-25
2023/06/25 08:12:19;;;;;;;11.68;7.30;;;;;;;;;;5065926;28;43702;-26
2023/06/25 08:14:47;;;;;;;8.57;7.78;;;;;;;;;;5059298;28;40427;-25
2023/06/25 08:17:15;;;;;;;11.10;8.32;;;;;;;;;;5065994;28;43725;-26
2023/06/25 08:19:44;;;;;;;11.82;7.65;;;;;;;;;;5064636;28;42301;-26
2023/06/25 08:22:12;;;;;;;9.38;7.93;;;;;;;;;;5064100;28;43710;-26
2023/06/25 08:24:40;;;;;;;9.35;7.95;;;;;;;;;;5057369;28;44012;-27
2023/06/25 08:27:08;;;;;;;9.57;8.02;;;;;;;;;;5065481;28;40968;-27
2023/06/25 08:29:36;;;;;;;11.25;7.20;;;;;;;;;;5048137;28;43291;-25
2023/06/25 08:32:05;;;;;;;9.65;7.47;;;;;;;;;;5062638;28;44513;-24
2023/06/25 08:34:33;;;;;;;8.07;6.57;;;;;;;;;;5061959;28;40090;-24
2023/06/25 08:37:02;;;;;;;7.60;6.90;;;;;;;;;;5059682;28;43324;-25
2023/06/25 08:39:30;;;;;;;9.32;6.88;;;;;;;;;;5060649;28;33125;-25
2023/06/25 08:41:59;;;;;;;8.20;7.35;;;;;;;;;;5061833;28;42375;-24
2023/06/25 08:44:27;;;;;;;8.20;6.80;;;;;;;;;;5058773;28;43978;-24
2023/06/25 08:46:55;;;;;;;7.60;6.20;;;;;;;;;;5063557;28;41351;-24
2023/06/25 08:49:23;;;;;;;7.30;6.50;;;;;;;;;;5062030;28;42343;-24
2023/06/25 08:51:52;;;;;;;8.25;6.45;;;;;;;;;;5062048;28;43039;-24
2023/06/25 08:54:22;;;;;;;7.13;6.43;;;;;;;;;;5059401;28;39589;-25
2023/06/25 08:56:49;;;;;;;6.80;6.00;;;;;;;;;;5062800;28;42493;-24
2023/06/25 08:59:18;;;;;;;7.22;6.30;;;;;;;;;;5061489;28;44381;-25
2023/06/25 09:01:46;;;;;;;7.90;6.80;;;;;;;;;;5063796;28;43696;-25
2023/06/25 09:04:14;;;;;;;7.45;6.65;;;;;;;;;;5061262;28;42866;-25
2023/06/25 09:06:42;;;;;;;7.35;6.47;;;;;;;;;;5056936;28;40759;-25
2023/06/25 09:09:31;;;;;;;7.05;6.35;;;;;;;;;;5061762;28;41878;-24
2023/06/25 09:11:59;;;;;;;6.68;6.07;;;;;;;;;;5060795;28;44582;-25
2023/06/25 09:14:27;;;;;;;11.20;6.43;;;;;;;;;;5060373;28;41306;-24
2023/06/25 09:16:56;;;;;;;7.13;6.38;;;;;;;;;;5062168;28;42737;-25
2023/06/25 09:19:24;;;;;;;6.82;6.07;;;;;;;;;;5060842;28;44021;-24
2023/06/25 09:21:52;;;;;;;6.80;6.10;;;;;;;;;;5057965;28;40123;-25
2023/06/25 09:24:21;;;;;;;7.97;6.15;;;;;;;;;;5061094;28;43193;-26
2023/06/25 09:26:50;;;;;;;8.93;5.68;;;;;;;;;;5062107;28;41260;-26
2023/06/25 09:29:18;;;;;;;6.95;6.05;;;;;;;;;;5063157;28;43800;-27
2023/06/25 09:31:46;;;;;;;7.25;6.05;;;;;;;;;;5060509;28;44804;-26
2023/06/25 09:34:15;;;;;;;7.38;6.25;;;;;;;;;;5065729;28;42114;-26
2023/06/25 09:36:43;;;;;;;8.02;6.22;;;;;;;;;;5066042;28;43220;-26
2023/06/25 09:39:11;;;;;;;9.15;6.65;;;;;;;;;;5065328;28;43991;-26
2023/06/25 09:41:40;;;;;;;8.80;6.78;;;;;;;;;;5062818;28;39837;-25
2023/06/25 09:44:10;;;;;;;6.60;5.90;;;;;;;;;;5062039;28;43857;-26
2023/06/25 09:46:38;;;;;;;8.25;6.50;;;;;;;;;;5065430;28;39583;-25
2023/06/25 09:49:07;;;;;;;8.63;6.57;;;;;;;;;;5064515;28;42187;-26
2023/06/25 09:51:38;;;;;;;6.93;6.22;;;;;;;;;;5063201;28;43363;-25
2023/06/25 09:54:06;;;;;;;6.70;5.97;;;;;;;;;;5064244;28;40432;-26
2023/06/25 09:56:34;;;;;;;7.60;5.85;;;;;;;;;;5058587;28;42249;-25
2023/06/25 09:59:02;;;;;;;7.10;6.32;;;;;;;;;;5063933;28;44122;-23
2023/06/25 10:01:31;;;;;;;9.60;6.38;;;;;;;;;;5061312;28;39356;-23
2023/06/25 10:03:59;;;;;;;9.77;6.80;;;;;;;;;;5064017;28;43275;-24
2023/06/25 10:06:28;;;;;;;7.53;6.32;;;;;;;;;;5056855;28;43505;-25
2023/06/25 10:08:56;;;;;;;10.13;6.32;;;;;;;;;;5060727;28;43736;-26
2023/06/25 10:11:24;;;;;;;10.15;6.45;;;;;;;;;;5063999;28;43743;-25
2023/06/25 10:13:52;;;;;;;6.80;6.20;;;;;;;;;;5065367;28;41171;-25
2023/06/25 10:16:20;;;;;;;7.10;6.35;;;;;;;;;;5064188;28;43594;-23
2023/06/25 10:19:06;;;;;;;8.50;6.35;;;;;;;;;;5064417;28;44502;-23
2023/06/25 10:21:34;;;;;;;10.00;6.10;;;;;;;;;;5063629;28;41127;-23
2023/06/25 10:24:03;;;;;;;8.63;6.50;;;;;;;;;;5064585;28;43691;-24
2023/06/25 10:26:33;;;;;;;8.45;6.40;;;;;;;;;;5065121;28;42388;-24
2023/06/25 10:29:01;;;;;;;8.30;6.63;;;;;;;;;;5064955;28;42246;-24
2023/06/25 10:31:36;;;;;;;7.43;6.70;;;;;;;;;;5064428;28;43299;-24
2023/06/25 10:34:06;;;;;;;24.48;9.90;;;;;;;;;;5058022;28;41470;-24
2023/06/25 10:36:34;;;;;;;7.78;6.35;;;;;;;;;;5059378;28;42266;-24
2023/06/25 10:39:02;;;;;;;9.15;6.40;;;;;;;;;;5058565;28;43429;-24
2023/06/25 10:41:30;;;;;;;6.72;6.03;;;;;;;;;;5060080;28;38673;-24
2023/06/25 10:43:58;;;;;;;7.13;6.05;;;;;;;;;;5054694;28;42428;-24
2023/06/25 10:46:30;;;;;;;8.48;6.25;;;;;;;;;;5059787;28;44712;-24
2023/06/25 10:49:02;;;;;;;7.20;6.47;;;;;;;;;;5063126;28;41222;-25
2023/06/25 10:51:33;;;;;;;7.53;6.68;;;;;;;;;;5059577;28;42674;-27
2023/06/25 10:54:02;;;;;;;10.30;7.18;;;;;;;;;;5061969;28;20332;-25
2023/06/25 10:56:30;;;;;;;7.80;6.93;;;;;;;;;;5062489;28;42304;-26
2023/06/25 10:58:58;;;;;;;7.78;6.68;;;;;;;;;;5065395;28;43621;-26
2023/06/25 11:01:27;;;;;;;7.90;6.80;;;;;;;;;;5063061;28;41151;-27
2023/06/25 11:03:55;;;;;;;8.10;6.38;;;;;;;;;;5054472;28;43662;-26
2023/06/25 11:06:23;;;;;;;6.72;6.03;;;;;;;;;;5059125;28;44465;-26
2023/06/25 11:08:52;;;;;;;7.97;6.45;;;;;;;;;;5059863;28;41197;-26
2023/06/25 11:11:22;;;;;;;12.40;6.45;;;;;;;;;;5055821;28;42515;-25
2023/06/25 11:13:50;;;;;;;8.07;6.35;;;;;;;;;;5062011;28;42239;-26
2023/06/25 11:16:19;;;;;;;7.38;6.68;;;;;;;;;;5063174;28;42624;-26
2023/06/25 11:18:50;;;;;;;6.97;6.28;;;;;;;;;;5063268;28;44375;-26
2023/06/25 11:21:18;;;;;;;8.45;6.13;;;;;;;;;;5063086;28;41392;-26
2023/06/25 11:23:46;;;;;;;7.88;6.63;;;;;;;;;;5065169;28;44276;-25
2023/06/25 11:26:17;;;;;;;8.00;6.72;;;;;;;;;;5062341;28;43565;-25
2023/06/25 11:28:48;;;;;;;7.47;6.60;;;;;;;;;;5062456;28;40961;-26
2023/06/25 11:31:16;;;;;;;7.57;6.78;;;;;;;;;;5059595;28;43754;-27
2023/06/25 11:33:53;;;;;;;7.78;6.80;;;;;;;;;;5064321;28;44028;-26
2023/06/25 11:36:23;;;;;;;8.02;6.60;;;;;;;;;;5062019;28;42803;-26
2023/06/25 11:38:51;;;;;;;9.20;6.75;;;;;;;;;;5063176;28;43591;-26
2023/06/25 11:41:27;;;;;;;8.35;6.53;;;;;;;;;;5058120;28;40325;-25
2023/06/25 11:43:55;;;;;;;7.68;6.85;;;;;;;;;;5064024;28;43491;-26
2023/06/25 11:46:23;;;;;;;7.35;6.63;;;;;;;;;;5060000;28;43195;-25
2023/06/25 11:48:51;;;;;;;10.25;6.00;;;;;;;;;;5063028;28;40428;-25
2023/06/25 11:51:19;;;;;;;9.00;6.78;;;;;;;;;;5062676;28;43648;-26
2023/06/25 11:53:47;;;;;;;8.07;6.88;;;;;;;;;;5062280;28;43349;-25
2023/06/25 11:56:15;;;;;;;7.82;6.38;;;;;;;;;;5063962;28;41817;-25
2023/06/25 11:58:44;;;;;;;6.90;6.22;;;;;;;;;;5063535;28;44150;-26
2023/06/25 12:01:12;;;;;;;7.03;6.32;;;;;;;;;;5061544;28;41286;-25
2023/06/25 12:03:40;;;;;;;6.97;6.03;;;;;;;;;;5063001;28;42932;-25
2023/06/25 12:06:08;;;;;;;11.95;6.57;;;;;;;;;;5063761;28;43131;-23
2023/06/25 12:08:36;;;;;;;8.25;6.20;;;;;;;;;;5063689;28;40563;-23
2023/06/25 12:11:04;;;;;;;6.80;6.10;;;;;;;;;;5054053;28;42546;-23
2023/06/25 12:13:32;;;;;;;9.23;6.15;;;;;;;;;;5063269;28;43378;-23
2023/06/25 12:16:01;;;;;;;6.45;5.75;;;;;;;;;;5061500;28;40677;-23
2023/06/25 12:18:29;;;;;;;7.03;6.32;;;;;;;;;;5062909;28;42327;-23
2023/06/25 12:20:57;;;;;;;6.55;5.95;;;;;;;;;;5058470;28;39865;-23
2023/06/25 12:23:25;;;;;;;6.55;5.90;;;;;;;;;;5059810;28;42844;-23
2023/06/25 12:25:53;;;;;;;7.13;6.35;;;;;;;;;;5051079;28;43761;-26
2023/06/25 12:28:21;;;;;;;9.05;6.68;;;;;;;;;;5049873;28;41523;-24
2023/06/25 12:30:49;;;;;;;15.75;7.95;;;;;;;;;;5060171;28;42771;-24
2023/06/25 12:33:18;;;;;;;46.05;11.15;;;;;;;;;;5044087;28;44483;-24
2023/06/25 12:35:46;;;;;;;28.60;9.95;;;;;;;;;;5047143;28;38795;-24
2023/06/25 12:38:14;;;;;;;17.25;7.15;;;;;;;;;;5045136;28;42827;-26
2023/06/25 12:40:43;;;;;;;10.60;6.28;;;;;;;;;;5055437;28;43966;-25
2023/06/25 12:43:10;;;;;;;10.73;6.35;;;;;;;;;;5056755;28;42881;-24
2023/06/25 12:45:39;;;;;;;7.90;6.10;;;;;;;;;;5062278;28;43795;-23
2023/06/25 12:48:07;;;;;;;7.95;5.90;;;;;;;;;;5058915;28;41400;-24
2023/06/25 12:50:36;;;;;;;8.75;5.80;;;;;;;;;;5054037;28;43747;-23
2023/06/25 12:53:04;;;;;;;13.18;5.88;;;;;;;;;;5056931;28;43931;-25
2023/06/25 12:55:32;;;;;;;6.47;5.28;;;;;;;;;;5061129;28;39802;-26
2023/06/25 12:58:00;;;;;;;8.00;5.80;;;;;;;;;;5062707;28;43632;-26
2023/06/25 13:00:28;;;;;;;6.90;5.80;;;;;;;;;;5061676;28;44376;-25
2023/06/25 13:03:13;;;;;;;8.77;5.38;;;;;;;;;;5059367;28;43272;-25
2023/06/25 13:05:43;;;;;;;7.20;5.38;;;;;;;;;;5065775;28;43862;-25
2023/06/25 13:08:11;;;;;;;6.05;5.22;;;;;;;;;;5065073;28;39981;-26
2023/06/25 13:10:39;;;;;;;6.60;5.15;;;;;;;;;;5057109;28;42760;-25
2023/06/25 13:13:07;;;;;;;6.10;5.50;;;;;;;;;;5065889;28;44340;-25
2023/06/25 13:15:35;;;;;;;6.28;4.85;;;;;;;;;;5059328;28;40445;-25
2023/06/25 13:18:03;;;;;;;6.70;5.07;;;;;;;;;;5062511;28;41523;-25
2023/06/25 13:20:31;;;;;;;6.70;5.03;;;;;;;;;;5064817;28;43399;-25
2023/06/25 13:23:01;;;;;;;6.07;5.03;;;;;;;;;;5065430;28;41019;-25
2023/06/25 13:25:30;;;;;;;6.05;5.13;;;;;;;;;;5057464;28;44506;-31
2023/06/25 13:27:58;;;;;;;5.18;4.70;;;;;;;;;;5059577;28;40857;-25
2023/06/25 13:30:26;;;;;;;6.13;4.95;;;;;;;;;;5057171;28;42590;-25
2023/06/25 13:32:54;;;;;;;5.30;4.80;;;;;;;;;;5059779;28;44005;-26
2023/06/25 13:35:22;;;;;;;6.63;5.18;;;;;;;;;;5057288;28;40328;-25
2023/06/25 13:37:50;;;;;;;5.70;5.20;;;;;;;;;;5061815;28;43101;-24
2023/06/25 13:40:19;;;;;;;5.90;4.50;;;;;;;;;;5058393;28;43336;-24
2023/06/25 13:42:47;;;;;;;5.43;4.60;;;;;;;;;;5060462;28;42098;-25
2023/06/25 13:45:16;;;;;;;6.55;5.05;;;;;;;;;;5060046;28;43272;-25
2023/06/25 13:47:45;;;;;;;7.28;4.80;;;;;;;;;;5060046;28;40466;-24
2023/06/25 13:50:13;;;;;;;6.63;4.75;;;;;;;;;;5060190;28;43378;-24
2023/06/25 13:52:41;;;;;;;5.20;4.70;;;;;;;;;;5059657;28;43152;-24
2023/06/25 13:55:09;;;;;;;5.47;4.97;;;;;;;;;;5060816;28;40318;-24
2023/06/25 13:57:38;;;;;;;8.65;4.93;;;;;;;;;;5061493;28;41473;-25
2023/06/25 14:00:07;;;;;;;5.45;4.97;;;;;;;;;;5062252;28;43176;-24
2023/06/25 14:02:34;;;;;;;5.13;4.40;;;;;;;;;;5060388;28;40828;-24
2023/06/25 14:05:07;;;;;;;6.45;4.80;;;;;;;;;;5057848;28;43526;-24
2023/06/25 14:07:35;;;;;;;5.68;5.07;;;;;;;;;;5059819;28;42976;-24
2023/06/25 14:10:03;;;;;;;6.38;5.32;;;;;;;;;;5059532;28;43728;-24
2023/06/25 14:12:31;;;;;;;5.53;5.03;;;;;;;;;;5058785;28;43499;-24
2023/06/25 14:15:01;;;;;;;8.10;4.40;;;;;;;;;;5058255;28;42033;-24
2023/06/25 14:17:29;;;;;;;5.15;4.65;;;;;;;;;;5060771;28;42154;-24
2023/06/25 14:19:57;;;;;;;5.63;4.55;;;;;;;;;;5060783;28;43443;-24
2023/06/25 14:22:25;;;;;;;6.07;5.40;;;;;;;;;;5057317;28;40559;-24
2023/06/25 14:24:53;;;;;;;5.70;5.10;;;;;;;;;;5060498;28;43226;-24
2023/06/25 14:27:21;;;;;;;5.82;4.90;;;;;;;;;;5076799;28;42583;-24
2023/06/25 14:29:48;;;;;;;6.68;5.53;;;;;;;;;;5062865;28;41293;-24
2023/06/25 14:32:18;;;;;;;6.90;5.90;;;;;;;;;;5061385;28;43000;-24
2023/06/25 14:34:46;;;;;;;8.60;5.90;;;;;;;;;;5062202;28;40000;-24
2023/06/25 14:37:14;;;;;;;6.70;6.10;;;;;;;;;;5060467;28;42850;-24
2023/06/25 14:39:42;;;;;;;8.10;6.72;;;;;;;;;;5058724;28;42947;-24
2023/06/25 14:42:09;;;;;;;14.23;6.90;;;;;;;;;;5059196;28;41220;-24
2023/06/25 14:44:37;;;;;;;7.55;6.85;;;;;;;;;;5058369;28;42216;-24
2023/06/25 14:47:06;;;;;;;9.07;7.03;;;;;;;;;;5059171;28;44530;-24
2023/06/25 14:49:35;;;;;;;7.80;6.90;;;;;;;;;;5059988;28;40492;-24